Time;durP1;ratioP1;P1;durP2;ratioP2;P2;SDS_P1;SDS_P2;PMS_P1;PMS_P2;Temp;Humidity;BMP_temperature;BMP_pressure;BME280_temperature;BME280_humidity;BME280_pressure;Samples;Min_cycle;Max_cycle;Signal;HPM_P1;HPM_P2
2021/09/13 00:02:03;;;;;;;8.55;7.40;;;;;;;21.38;100.00;96427.16;5044326;28;20073;-52
2021/09/13 00:04:31;;;;;;;11.05;7.15;;;;;;;21.09;100.00;96436.50;5044637;28;20064;-55
2021/09/13 00:07:00;;;;;;;8.50;7.57;;;;;;;20.74;100.00;96442.16;5049176;28;20144;-54
2021/09/13 00:09:28;;;;;;;10.00;7.95;;;;;;;21.65;100.00;96432.41;5043958;28;20061;-53
2021/09/13 00:11:58;;;;;;;12.38;8.20;;;;;;;21.76;100.00;96429.84;5032063;28;20068;-57
2021/09/13 00:14:27;;;;;;;10.60;8.85;;;;;;;21.17;100.00;96422.06;5022354;28;20077;-57
2021/09/13 00:16:55;;;;;;;10.18;9.10;;;;;;;21.32;100.00;96420.75;5022889;28;20073;-57
2021/09/13 00:19:23;;;;;;;12.88;9.35;;;;;;;21.92;100.00;96427.66;5023636;28;20088;-53
2021/09/13 00:21:52;;;;;;;10.70;8.93;;;;;;;21.31;100.00;96437.88;5045269;28;20084;-52
2021/09/13 00:24:20;;;;;;;10.57;9.23;;;;;;;21.30;100.00;96440.75;5042975;28;20550;-55
2021/09/13 00:26:49;;;;;;;12.48;10.02;;;;;;;21.86;100.00;96429.38;5042838;28;20171;-56
2021/09/13 00:29:20;;;;;;;11.27;9.85;;;;;;;22.10;100.00;96430.44;5040354;28;20072;-55
2021/09/13 00:31:49;;;;;;;12.38;9.98;;;;;;;21.65;100.00;96432.41;5027084;28;20075;-58
2021/09/13 00:34:17;;;;;;;12.02;9.93;;;;;;;21.46;100.00;96439.50;5046421;28;20092;-55
2021/09/13 00:36:45;;;;;;;10.43;9.32;;;;;;;22.14;100.00;96430.84;5026168;28;20065;-53
2021/09/13 00:39:14;;;;;;;11.85;10.55;;;;;;;22.23;100.00;96434.94;5026020;28;20084;-58
2021/09/13 00:41:42;;;;;;;11.40;10.20;;;;;;;22.30;100.00;96438.41;5025383;28;20065;-57
2021/09/13 00:44:11;;;;;;;10.88;9.50;;;;;;;22.09;100.00;96439.53;5026006;28;20066;-56
2021/09/13 00:46:40;;;;;;;12.82;10.48;;;;;;;22.13;100.00;96440.75;5033674;28;20084;-55
2021/09/13 00:49:09;;;;;;;11.68;10.38;;;;;;;22.25;100.00;96438.22;5050515;28;20084;-57
2021/09/13 00:51:37;;;;;;;11.45;9.70;;;;;;;22.22;100.00;96439.47;5026286;28;20057;-55
2021/09/13 00:54:06;;;;;;;11.65;9.85;;;;;;;21.75;100.00;96448.88;5040441;28;20072;-54
2021/09/13 00:56:35;;;;;;;12.68;9.73;;;;;;;22.26;100.00;96445.22;5034479;28;20065;-58
2021/09/13 00:59:03;;;;;;;15.65;10.30;;;;;;;22.32;100.00;96440.84;5025310;28;20069;-59
2021/09/13 01:01:32;;;;;;;11.48;10.15;;;;;;;21.78;100.00;96445.72;5026008;28;20077;-54
2021/09/13 01:04:02;;;;;;;11.82;9.70;;;;;;;21.07;100.00;96442.09;5029794;28;20080;-53
2021/09/13 01:06:30;;;;;;;12.50;9.65;;;;;;;21.33;100.00;96441.19;5042613;28;20709;-57
2021/09/13 01:08:59;;;;;;;15.48;9.07;;;;;;;21.76;100.00;96435.22;5031204;28;20084;-55
2021/09/13 01:11:27;;;;;;;11.68;10.48;;;;;;;22.10;100.00;96427.78;5032742;28;20072;-56
2021/09/13 01:13:56;;;;;;;12.93;10.75;;;;;;;22.14;100.00;96434.34;5048563;28;20064;-56
2021/09/13 01:16:24;;;;;;;11.40;10.18;;;;;;;22.05;100.00;96428.41;5050765;28;20083;-56
2021/09/13 01:18:53;;;;;;;13.68;10.65;;;;;;;22.16;100.00;96431.44;5027129;28;20092;-56
2021/09/13 01:21:24;;;;;;;11.98;10.10;;;;;;;22.10;100.00;96427.78;5025136;28;20069;-55
2021/09/13 01:23:53;;;;;;;11.15;9.20;;;;;;;21.48;100.00;96434.75;5023967;28;20061;-52
2021/09/13 01:26:22;;;;;;;12.25;9.13;;;;;;;21.04;100.00;96430.97;5024221;28;20069;-57
2021/09/13 01:28:50;;;;;;;11.43;9.15;;;;;;;21.32;100.00;96430.66;5025670;28;20076;-57
2021/09/13 01:31:20;;;;;;;13.30;9.82;;;;;;;20.95;100.00;96435.72;5025280;28;20088;-56
2021/09/13 01:33:49;;;;;;;12.07;10.27;;;;;;;20.76;100.00;96433.94;5030457;28;20565;-58
2021/09/13 01:36:17;;;;;;;12.75;10.82;;;;;;;20.63;100.00;96440.13;5022508;28;20139;-56
2021/09/13 01:38:45;;;;;;;13.63;10.40;;;;;;;20.29;100.00;96435.78;5026314;28;20068;-58
2021/09/13 01:41:15;;;;;;;12.63;10.38;;;;;;;21.26;100.00;96426.13;5024484;28;20778;-56
2021/09/13 01:43:44;;;;;;;11.85;10.65;;;;;;;20.96;100.00;96434.72;5027702;28;20071;-58
2021/09/13 01:46:13;;;;;;;11.38;10.20;;;;;;;21.32;100.00;96426.13;5046732;28;20084;-57
2021/09/13 01:48:41;;;;;;;13.07;10.55;;;;;;;21.31;100.00;96427.16;5045597;28;20064;-58
2021/09/13 01:51:10;;;;;;;12.52;9.95;;;;;;;21.58;100.00;96421.69;5027513;28;20065;-57
2021/09/13 01:53:38;;;;;;;14.30;10.00;;;;;;;21.39;100.00;96426.13;5024007;28;20073;-58
2021/09/13 01:56:06;;;;;;;11.70;9.70;;;;;;;21.42;100.00;96430.25;5036897;28;20065;-59
2021/09/13 01:58:36;;;;;;;10.82;9.23;;;;;;;21.59;100.00;96422.53;5044956;28;20111;-57
2021/09/13 02:01:04;;;;;;;11.60;9.70;;;;;;;20.83;100.00;96429.38;5026320;28;20088;-57
2021/09/13 02:03:33;;;;;;;11.13;9.93;;;;;;;21.08;100.00;96424.16;5025777;28;20996;-51
2021/09/13 02:06:02;;;;;;;14.23;9.77;;;;;;;21.37;100.00;96430.03;5024169;28;20080;-54
2021/09/13 02:08:30;;;;;;;13.40;10.27;;;;;;;21.27;100.00;96434.00;5023760;28;20065;-58
2021/09/13 02:10:59;;;;;;;12.90;9.43;;;;;;;21.18;100.00;96431.75;5023350;28;20107;-57
2021/09/13 02:13:27;;;;;;;9.63;8.57;;;;;;;20.78;100.00;96438.03;5024942;28;20085;-58
2021/09/13 02:15:57;;;;;;;10.73;8.93;;;;;;;20.81;100.00;96445.66;5026630;28;20080;-60
2021/09/13 02:18:26;;;;;;;11.32;8.65;;;;;;;20.76;100.00;96433.94;5024520;28;20512;-60
2021/09/13 02:20:54;;;;;;;14.65;9.07;;;;;;;20.50;100.00;96429.41;5027079;28;20565;-60
2021/09/13 02:23:23;;;;;;;11.07;9.38;;;;;;;20.06;100.00;96429.00;5026342;28;20496;-59
2021/09/13 02:25:51;;;;;;;9.93;8.93;;;;;;;19.98;100.00;96429.19;5019246;28;20072;-55
2021/09/13 02:28:19;;;;;;;12.18;9.55;;;;;;;20.06;100.00;96428.16;5026176;28;20085;-57
2021/09/13 02:30:48;;;;;;;11.43;9.43;;;;;;;20.42;100.00;96434.97;5029814;28;20068;-54
2021/09/13 02:33:18;;;;;;;12.35;10.73;;;;;;;20.34;100.00;96423.44;5023094;28;20470;-58
2021/09/13 02:35:47;;;;;;;11.55;9.63;;;;;;;20.48;100.00;96431.47;5023015;28;20072;-56
2021/09/13 02:38:15;;;;;;;12.27;9.40;;;;;;;20.61;100.00;96435.00;5033309;28;20064;-57
2021/09/13 02:40:44;;;;;;;10.73;9.63;;;;;;;20.73;100.00;96429.81;5042312;28;20144;-57
2021/09/13 02:43:12;;;;;;;14.73;9.93;;;;;;;20.59;100.00;96425.50;5054047;28;20131;-56
2021/09/13 02:45:40;;;;;;;11.80;9.70;;;;;;;20.22;100.00;96430.44;5048487;28;20486;-58
2021/09/13 02:48:09;;;;;;;13.93;10.18;;;;;;;20.31;100.00;96421.19;5048417;28;20163;-55
2021/09/13 02:50:39;;;;;;;11.55;10.10;;;;;;;20.46;100.00;96423.63;5045034;28;20060;-59
2021/09/13 02:53:07;;;;;;;12.63;9.75;;;;;;;20.60;100.00;96427.97;5046060;28;20103;-56
2021/09/13 02:55:36;;;;;;;11.90;9.02;;;;;;;20.62;100.00;96422.41;5047399;28;20072;-59
2021/09/13 02:58:05;;;;;;;11.07;8.93;;;;;;;20.39;100.00;96423.63;5029899;28;20104;-56
2021/09/13 03:00:33;;;;;;;13.88;9.07;;;;;;;20.49;100.00;96428.56;5042308;28;20072;-54
2021/09/13 03:03:02;;;;;;;14.70;9.63;;;;;;;20.18;100.00;96426.53;5031634;28;20097;-56
2021/09/13 03:05:31;;;;;;;13.18;9.30;;;;;;;20.16;100.00;96417.88;5019961;28;20091;-55
2021/09/13 03:08:01;;;;;;;10.00;8.88;;;;;;;20.45;100.00;96421.19;5023766;28;20084;-55
2021/09/13 03:10:29;;;;;;;10.82;9.57;;;;;;;20.25;100.00;96418.50;5024014;28;20089;-55
2021/09/13 03:12:57;;;;;;;13.38;8.80;;;;;;;19.95;100.00;96418.06;5026210;28;20081;-54
2021/09/13 03:15:26;;;;;;;13.10;10.10;;;;;;;19.76;100.00;96422.38;5042406;28;20080;-55
2021/09/13 03:17:54;;;;;;;12.98;10.02;;;;;;;20.06;100.00;96418.31;5048849;28;20061;-56
2021/09/13 03:20:23;;;;;;;13.50;9.77;;;;;;;19.87;100.00;96416.41;5038309;28;20065;-57
2021/09/13 03:22:51;;;;;;;11.77;9.82;;;;;;;20.10;100.00;96419.53;5025573;28;20076;-55
2021/09/13 03:25:23;;;;;;;10.48;9.20;;;;;;;20.28;100.00;96424.25;5026759;28;20076;-57
2021/09/13 03:27:51;;;;;;;11.65;9.10;;;;;;;20.20;100.00;96423.63;5055061;28;20077;-58
2021/09/13 03:30:20;;;;;;;15.55;9.90;;;;;;;20.03;100.00;96420.56;5023222;28;20065;-55
2021/09/13 03:32:49;;;;;;;14.02;10.48;;;;;;;19.92;100.00;96422.81;5023606;28;20064;-54
2021/09/13 03:35:17;;;;;;;12.40;9.82;;;;;;;19.89;100.00;96415.19;5025696;28;20053;-56
2021/09/13 03:37:45;;;;;;;15.50;10.65;;;;;;;19.64;100.00;96414.09;5022833;28;20061;-51
2021/09/13 03:40:15;;;;;;;12.35;10.48;;;;;;;19.65;100.00;96407.75;5026788;28;20468;-55
2021/09/13 03:42:44;;;;;;;12.50;10.45;;;;;;;19.63;100.00;96407.94;5029655;28;20073;-53
2021/09/13 03:45:13;;;;;;;14.10;11.02;;;;;;;19.77;100.00;96410.63;5039708;28;20087;-52
2021/09/13 03:47:41;;;;;;;14.73;11.15;;;;;;;19.54;100.00;96419.81;5044030;28;20087;-55
2021/09/13 03:50:10;;;;;;;14.20;10.90;;;;;;;19.48;100.00;96414.44;5041432;28;20057;-54
2021/09/13 03:52:38;;;;;;;10.88;9.73;;;;;;;19.62;100.00;96411.63;5021404;28;20089;-54
2021/09/13 03:55:08;;;;;;;11.05;9.40;;;;;;;19.65;100.00;96411.25;5024503;28;20088;-56
2021/09/13 03:57:36;;;;;;;10.32;8.65;;;;;;;19.80;100.00;96412.91;5022258;28;20537;-53
2021/09/13 04:00:07;;;;;;;13.82;8.57;;;;;;;19.52;100.00;96405.81;5023700;28;20077;-59
2021/09/13 04:02:36;;;;;;;11.18;9.23;;;;;;;19.48;100.00;96420.63;5021840;28;20061;-59
2021/09/13 04:05:06;;;;;;;11.50;9.40;;;;;;;19.36;100.00;96414.22;5028342;28;20497;-56
2021/09/13 04:07:39;;;;;;;10.43;9.35;;;;;;;19.76;100.00;96417.03;5047159;28;20084;-58
2021/09/13 04:10:17;;;;;;;11.63;10.05;;;;;;;19.18;100.00;96415.59;5028055;28;20069;-56
2021/09/13 04:12:46;;;;;;;12.68;10.68;;;;;;;19.33;100.00;96406.59;5045066;28;20076;-57
2021/09/13 04:15:16;;;;;;;10.75;9.52;;;;;;;18.94;100.00;96408.91;5032450;28;20108;-55
2021/09/13 04:17:44;;;;;;;10.60;9.50;;;;;;;19.16;100.00;96404.25;5023159;28;20082;-58
2021/09/13 04:20:13;;;;;;;11.43;9.48;;;;;;;19.12;100.00;96397.66;5029637;28;20064;-59
2021/09/13 04:22:42;;;;;;;11.07;9.73;;;;;;;18.67;100.00;96396.38;5031370;28;24103;-59
2021/09/13 04:25:11;;;;;;;13.07;9.25;;;;;;;18.78;100.00;96403.06;5025660;28;20082;-59
2021/09/13 04:27:39;;;;;;;12.18;10.35;;;;;;;18.95;100.00;96399.03;5027299;28;20060;-58
2021/09/13 04:30:08;;;;;;;11.48;10.27;;;;;;;18.87;100.00;96405.38;5026802;28;20442;-57
2021/09/13 04:32:38;;;;;;;10.65;9.55;;;;;;;18.81;100.00;96403.47;5028789;28;20065;-57
2021/09/13 04:35:12;;;;;;;11.02;9.90;;;;;;;19.16;100.00;96409.59;5027651;28;20069;-59
2021/09/13 04:37:40;;;;;;;11.93;9.70;;;;;;;18.86;100.00;96405.59;5029375;28;20154;-57
2021/09/13 04:40:14;;;;;;;10.30;9.20;;;;;;;19.03;100.00;96404.22;5029000;28;20042;-56
2021/09/13 04:42:43;;;;;;;9.93;8.93;;;;;;;19.40;100.00;96402.06;5034819;28;20462;-54
2021/09/13 04:45:12;;;;;;;9.77;8.77;;;;;;;19.29;100.00;96402.66;5026766;28;20072;-56
2021/09/13 04:47:42;;;;;;;9.57;8.60;;;;;;;19.29;100.00;96398.13;5025426;28;20475;-57
2021/09/13 04:50:10;;;;;;;10.65;8.40;;;;;;;18.85;100.00;96401.25;5029406;28;20075;-53
2021/09/13 04:52:39;;;;;;;10.60;7.80;;;;;;;18.85;100.00;96399.38;5037500;28;20080;-56
2021/09/13 04:55:08;;;;;;;8.60;7.70;;;;;;;19.08;100.00;96395.59;5027852;28;20484;-57
2021/09/13 04:57:38;;;;;;;9.50;8.35;;;;;;;19.23;100.00;96406.94;5026454;28;20069;-56
2021/09/13 05:00:07;;;;;;;9.20;8.20;;;;;;;19.51;100.00;96401.50;5025155;28;20073;-61
2021/09/13 05:02:35;;;;;;;10.43;8.27;;;;;;;19.49;100.00;96406.22;5027015;28;20042;-55
2021/09/13 05:05:07;;;;;;;9.65;8.02;;;;;;;19.43;100.00;96405.16;5022256;28;20102;-57
2021/09/13 05:07:35;;;;;;;9.75;8.00;;;;;;;19.46;100.00;96409.31;5023159;28;20492;-55
2021/09/13 05:10:04;;;;;;;10.73;8.35;;;;;;;19.56;100.00;96399.03;5027229;28;20085;-52
2021/09/13 05:12:33;;;;;;;9.85;8.65;;;;;;;19.56;100.00;96407.06;5025937;28;20065;-56
2021/09/13 05:15:01;;;;;;;11.30;8.60;;;;;;;19.64;100.00;96403.41;5037711;28;20480;-59
2021/09/13 05:17:29;;;;;;;10.55;8.93;;;;;;;19.74;100.00;96406.50;5034793;28;20065;-60
2021/09/13 05:19:58;;;;;;;11.70;9.23;;;;;;;19.70;100.00;96409.81;5019565;28;20065;-56
2021/09/13 05:22:27;;;;;;;11.30;8.85;;;;;;;19.94;100.00;96413.75;5036892;28;20069;-57
2021/09/13 05:24:56;;;;;;;11.10;8.60;;;;;;;19.57;100.00;96410.56;5043593;28;20623;-57
2021/09/13 05:27:24;;;;;;;10.82;8.63;;;;;;;20.33;100.00;96415.59;5022709;28;20485;-56
2021/09/13 05:29:53;;;;;;;14.40;9.50;;;;;;;20.61;100.00;96410.88;5037752;28;20084;-58
2021/09/13 05:32:21;;;;;;;24.27;11.68;;;;;;;20.58;100.00;96411.28;5044696;28;20449;-57
2021/09/13 05:34:50;;;;;;;62.20;12.88;;;;;;;20.03;100.00;96423.25;5036760;28;20077;-57
2021/09/13 05:37:18;;;;;;;54.47;13.70;;;;;;;20.42;100.00;96417.03;5028711;28;20080;-54
2021/09/13 05:39:48;;;;;;;25.73;12.95;;;;;;;20.85;100.00;96420.09;5022313;28;20065;-57
2021/09/13 05:42:16;;;;;;;45.85;13.30;;;;;;;21.32;100.00;96417.25;5026476;28;20061;-57
2021/09/13 05:44:45;;;;;;;48.60;12.35;;;;;;;21.46;100.00;96416.19;5030115;28;20069;-61
2021/09/13 05:47:13;;;;;;;60.22;12.90;;;;;;;21.66;100.00;96424.13;5034487;28;20069;-58
2021/09/13 05:49:41;;;;;;;30.48;11.05;;;;;;;21.69;100.00;96423.69;5030462;28;20080;-59
2021/09/13 05:52:10;;;;;;;37.60;10.48;;;;;;;21.97;100.00;96428.69;5032807;28;20095;-60
2021/09/13 05:54:38;;;;;;;55.88;12.00;;;;;;;22.07;100.00;96430.06;5025819;28;20489;-58
2021/09/13 05:57:08;;;;;;;29.02;10.63;;;;;;;21.54;100.00;96428.50;5034771;28;20561;-53
2021/09/13 05:59:36;;;;;;;19.15;10.73;;;;;;;22.16;100.00;96423.41;5035318;28;20069;-58
2021/09/13 06:02:05;;;;;;;11.43;9.95;;;;;;;22.32;100.00;96427.41;5027896;28;20068;-59
2021/09/13 06:04:34;;;;;;;13.55;10.65;;;;;;;22.50;100.00;96430.16;5026386;28;20065;-54
2021/09/13 06:07:04;;;;;;;12.43;10.80;;;;;;;22.68;100.00;96426.69;5024400;28;20057;-55
2021/09/13 06:09:32;;;;;;;11.90;10.50;;;;;;;22.51;100.00;96431.81;5020928;28;20435;-57
2021/09/13 06:12:01;;;;;;;13.32;10.40;;;;;;;22.78;100.00;96431.53;5023239;28;20924;-57
2021/09/13 06:14:31;;;;;;;13.40;10.20;;;;;;;22.81;100.00;96431.91;5026994;28;20080;-57
2021/09/13 06:16:59;;;;;;;12.10;10.70;;;;;;;22.87;100.00;96431.03;5030583;28;20073;-55
2021/09/13 06:19:34;;;;;;;11.85;9.88;;;;;;;23.11;100.00;96439.28;5018995;28;20481;-58
2021/09/13 06:22:03;;;;;;;12.38;9.70;;;;;;;22.92;100.00;96433.91;5027544;28;20618;-55
2021/09/13 06:24:32;;;;;;;12.40;10.20;;;;;;;22.98;100.00;96437.56;5038285;28;20067;-54
2021/09/13 06:27:00;;;;;;;12.00;10.13;;;;;;;23.24;100.00;96441.03;5044902;28;20136;-58
2021/09/13 06:29:29;;;;;;;11.20;9.93;;;;;;;23.32;100.00;96440.69;5041470;28;20443;-58
2021/09/13 06:31:58;;;;;;;11.65;9.85;;;;;;;23.44;100.00;96442.41;5036618;28;20080;-59
2021/09/13 06:34:29;;;;;;;12.75;10.38;;;;;;;23.56;100.00;96444.34;5025699;28;20125;-56
2021/09/13 06:36:58;;;;;;;11.48;10.27;;;;;;;23.63;100.00;96435.13;5041652;28;20440;-58
2021/09/13 06:39:26;;;;;;;13.90;11.60;;;;;;;23.66;100.00;96445.44;5024915;28;20072;-58
2021/09/13 06:41:54;;;;;;;13.15;11.40;;;;;;;23.92;100.00;96443.47;5036791;28;20065;-55
2021/09/13 06:44:25;;;;;;;12.50;11.20;;;;;;;23.61;100.00;96449.88;5036064;28;20476;-58
2021/09/13 06:47:03;;;;;;;14.95;12.95;;;;;;;23.56;100.00;96450.53;5029973;28;20061;-57
2021/09/13 06:49:33;;;;;;;17.45;13.50;;;;;;;23.63;100.00;96448.59;5040506;28;20084;-54
2021/09/13 06:52:02;;;;;;;16.80;13.95;;;;;;;23.83;100.00;96452.91;5020861;28;21502;-57
2021/09/13 06:54:31;;;;;;;16.38;13.20;;;;;;;23.45;100.00;96457.50;5023555;28;20069;-58
2021/09/13 06:56:59;;;;;;;15.02;12.60;;;;;;;23.77;100.00;96454.63;5024465;28;20061;-59
2021/09/13 06:59:28;;;;;;;14.00;12.52;;;;;;;23.84;100.00;96454.56;5023026;28;20073;-58
2021/09/13 07:01:56;;;;;;;16.70;14.02;;;;;;;23.90;100.00;96457.16;5023466;28;20061;-59
2021/09/13 07:04:25;;;;;;;17.05;14.52;;;;;;;23.99;100.00;96454.16;5022905;28;20080;-56
2021/09/13 07:06:55;;;;;;;17.50;14.55;;;;;;;24.46;100.00;96463.19;5029259;28;20089;-60
2021/09/13 07:09:23;;;;;;;19.58;14.88;;;;;;;23.93;100.00;96456.69;5038927;28;20073;-57
2021/09/13 07:11:52;;;;;;;19.23;16.40;;;;;;;24.35;100.00;96462.06;5042133;28;20094;-60
2021/09/13 07:14:20;;;;;;;18.52;15.75;;;;;;;25.01;100.00;96472.81;5023046;28;20065;-55
2021/09/13 07:16:48;;;;;;;21.75;16.73;;;;;;;25.14;100.00;96471.78;5021175;28;20528;-58
2021/09/13 07:19:17;;;;;;;20.88;17.80;;;;;;;24.90;100.00;96474.47;5026187;28;20088;-59
2021/09/13 07:21:45;;;;;;;23.27;17.95;;;;;;;25.11;100.00;96473.06;5022325;28;20069;-53
2021/09/13 07:24:20;;;;;;;21.52;16.45;;;;;;;24.74;100.00;96475.16;5021671;28;20064;-57
2021/09/13 07:26:49;;;;;;;20.65;17.00;;;;;;;25.24;100.00;96469.31;5035876;28;20081;-57
2021/09/13 07:29:17;;;;;;;18.83;15.35;;;;;;;25.45;100.00;96465.16;5043741;28;20075;-57
2021/09/13 07:31:45;;;;;;;20.77;16.38;;;;;;;25.34;100.00;96478.44;5038076;28;20089;-54
2021/09/13 07:34:14;;;;;;;19.35;16.20;;;;;;;25.41;99.61;96464.81;5021303;28;20111;-58
2021/09/13 07:36:42;;;;;;;22.92;17.58;;;;;;;25.63;98.83;96474.97;5018499;28;20555;-56
2021/09/13 07:39:11;;;;;;;19.45;16.80;;;;;;;25.75;97.87;96478.47;5024200;28;20065;-56
2021/09/13 07:41:40;;;;;;;18.27;16.00;;;;;;;26.21;91.12;96480.16;5032821;28;20083;-57
2021/09/13 07:44:09;;;;;;;18.77;16.02;;;;;;;25.63;93.72;96483.88;5047630;28;20099;-57
2021/09/13 07:46:37;;;;;;;17.70;15.57;;;;;;;24.48;100.00;96489.91;5046879;28;20087;-57
2021/09/13 07:49:05;;;;;;;19.48;16.50;;;;;;;24.45;100.00;96487.69;5028827;28;20073;-54
2021/09/13 07:51:34;;;;;;;17.73;15.30;;;;;;;24.84;100.00;96486.19;5027699;28;20064;-58
2021/09/13 07:54:03;;;;;;;16.40;14.63;;;;;;;25.68;98.36;96484.00;5029491;28;20697;-57
2021/09/13 07:56:31;;;;;;;17.90;15.02;;;;;;;25.74;98.22;96484.91;5028228;28;20041;-56
2021/09/13 07:59:03;;;;;;;18.08;14.68;;;;;;;24.79;99.02;96491.47;5025407;28;20073;-61
2021/09/13 08:01:31;;;;;;;17.23;13.88;;;;;;;25.44;93.27;96491.34;5025031;28;20084;-60
2021/09/13 08:04:00;;;;;;;18.10;14.52;;;;;;;26.38;86.52;96490.19;5031928;28;20081;-57
2021/09/13 08:06:29;;;;;;;17.48;13.70;;;;;;;27.21;76.79;96483.97;5024887;28;20065;-58
2021/09/13 08:08:57;;;;;;;16.70;13.73;;;;;;;26.60;78.12;96487.59;5039161;28;20072;-57
2021/09/13 08:11:27;;;;;;;14.50;12.02;;;;;;;26.67;76.69;96497.22;5041186;28;20176;-60
2021/09/13 08:13:55;;;;;;;11.50;10.10;;;;;;;27.14;71.24;96496.84;5032780;28;20065;-57
2021/09/13 08:16:25;;;;;;;11.18;9.65;;;;;;;27.16;68.42;96486.59;5027765;28;20081;-59
2021/09/13 08:18:53;;;;;;;11.88;8.50;;;;;;;26.35;68.24;96490.66;5025279;28;20103;-58
2021/09/13 08:21:22;;;;;;;9.85;8.85;;;;;;;25.54;74.66;96502.38;5028980;28;20101;-58
2021/09/13 08:23:50;;;;;;;8.43;7.63;;;;;;;25.71;72.03;96496.22;5030981;28;20060;-57
2021/09/13 08:26:19;;;;;;;9.55;6.63;;;;;;;26.28;64.40;96498.94;5029233;28;20064;-59
2021/09/13 08:28:47;;;;;;;10.80;6.68;;;;;;;25.53;70.80;96502.59;5044275;28;20069;-57
2021/09/13 08:31:15;;;;;;;8.55;6.47;;;;;;;25.79;68.61;96504.78;5029279;28;20092;-57
2021/09/13 08:33:45;;;;;;;7.68;6.80;;;;;;;26.33;63.46;96509.03;5043192;28;20040;-57
2021/09/13 08:36:14;;;;;;;7.28;5.68;;;;;;;26.42;64.27;96512.97;5022955;28;20068;-56
2021/09/13 08:38:42;;;;;;;6.13;5.38;;;;;;;26.24;66.49;96505.91;5025670;28;20065;-58
2021/09/13 08:41:11;;;;;;;9.43;7.10;;;;;;;26.68;64.74;96503.44;5025757;28;20704;-55
2021/09/13 08:43:40;;;;;;;9.55;7.38;;;;;;;27.05;61.38;96505.63;5024972;28;20080;-57
2021/09/13 08:46:11;;;;;;;8.50;7.60;;;;;;;26.54;63.98;96513.75;5030363;28;20085;-58
2021/09/13 08:48:43;;;;;;;7.78;6.97;;;;;;;27.93;56.79;96506.56;5045830;28;20075;-59
2021/09/13 08:51:29;;;;;;;8.27;6.30;;;;;;;26.97;62.88;96517.69;5023851;28;20069;-57
2021/09/13 08:54:01;;;;;;;7.32;6.22;;;;;;;27.86;56.52;96525.75;5029773;28;20061;-59
2021/09/13 08:56:37;;;;;;;7.57;6.57;;;;;;;26.46;59.98;96527.63;5026780;28;20073;-58
2021/09/13 08:59:07;;;;;;;7.00;6.30;;;;;;;26.81;62.54;96523.94;5028071;28;20477;-60
2021/09/13 09:01:35;;;;;;;7.05;5.97;;;;;;;27.35;60.39;96524.22;5041717;28;20080;-58
2021/09/13 09:04:04;;;;;;;9.32;6.00;;;;;;;25.98;64.74;96529.75;5024480;28;20080;-59
2021/09/13 09:06:36;;;;;;;6.03;5.43;;;;;;;26.73;59.27;96528.66;5026367;28;20062;-56
2021/09/13 09:09:06;;;;;;;6.85;5.38;;;;;;;26.65;59.46;96530.97;5036009;28;20073;-60
2021/09/13 09:11:56;;;;;;;6.22;5.63;;;;;;;26.35;64.19;96532.03;5045396;28;20073;-58
2021/09/13 09:14:40;;;;;;;9.20;6.35;;;;;;;26.11;69.75;96530.50;5032355;28;20091;-58
2021/09/13 09:17:21;;;;;;;7.32;6.50;;;;;;;25.88;71.01;96536.81;5033191;28;20069;-58
2021/09/13 09:20:00;;;;;;;6.35;5.75;;;;;;;26.00;67.30;96530.31;5024938;28;20567;-60
2021/09/13 09:22:31;;;;;;;6.95;5.40;;;;;;;26.37;64.07;96529.94;5026107;28;20081;-59
2021/09/13 09:25:01;;;;;;;6.18;5.05;;;;;;;26.93;62.33;96519.25;5028712;28;20080;-59
2021/09/13 09:27:30;;;;;;;6.22;5.45;;;;;;;25.98;67.18;96520.81;5027307;28;20084;-60
2021/09/13 09:30:11;;;;;;;6.70;5.38;;;;;;;26.80;61.74;96519.59;5037822;28;20081;-58
2021/09/13 09:32:41;;;;;;;6.63;5.93;;;;;;;26.67;61.61;96515.31;5040545;28;20076;-58
2021/09/13 09:35:16;;;;;;;9.52;5.50;;;;;;;27.36;59.00;96525.88;5039935;28;20076;-57
2021/09/13 09:37:46;;;;;;;6.63;5.90;;;;;;;26.91;59.11;96522.22;5026146;28;20092;-57
2021/09/13 09:40:29;;;;;;;6.53;5.72;;;;;;;26.74;61.20;96524.09;5048583;28;20254;-56
2021/09/13 09:43:03;;;;;;;5.20;4.70;;;;;;;27.45;54.01;96524.38;5040146;28;21374;-57
2021/09/13 09:45:32;;;;;;;6.22;5.53;;;;;;;26.97;61.04;96531.22;5046026;28;20107;-57
2021/09/13 09:48:08;;;;;;;7.43;5.90;;;;;;;27.20;58.28;96520.25;5033761;28;20077;-57
2021/09/13 09:50:36;;;;;;;5.03;4.18;;;;;;;27.64;53.00;96520.28;5035692;28;20072;-55
2021/09/13 09:53:19;;;;;;;6.70;4.90;;;;;;;26.75;55.20;96523.84;5039240;28;20652;-59
2021/09/13 09:55:52;;;;;;;5.50;4.70;;;;;;;27.51;51.76;96519.84;5026320;28;20069;-54
2021/09/13 09:58:20;;;;;;;7.25;5.38;;;;;;;27.33;54.10;96518.25;5044002;28;20168;-58
2021/09/13 10:00:50;;;;;;;5.95;4.80;;;;;;;27.68;53.46;96516.00;5043240;28;20285;-59
2021/09/13 10:03:29;;;;;;;8.07;5.68;;;;;;;27.42;53.78;96505.91;5021597;28;20598;-58
2021/09/13 10:05:58;;;;;;;5.35;4.85;;;;;;;28.23;50.12;96506.09;5026765;28;20076;-60
2021/09/13 10:08:28;;;;;;;4.55;4.15;;;;;;;27.46;53.24;96498.94;5024250;28;20068;-57
2021/09/13 10:10:56;;;;;;;4.22;3.80;;;;;;;27.82;50.46;96502.94;5029158;28;20064;-59
2021/09/13 10:13:26;;;;;;;4.65;3.63;;;;;;;27.70;51.93;96499.47;5045189;28;20546;-58
2021/09/13 10:15:54;;;;;;;4.00;3.60;;;;;;;27.83;51.76;96499.13;5026094;28;20513;-59
2021/09/13 10:18:23;;;;;;;4.65;3.80;;;;;;;27.52;54.29;96495.19;5023583;28;20072;-60
2021/09/13 10:20:51;;;;;;;7.28;5.30;;;;;;;27.64;56.03;96501.31;5027434;28;20119;-60
2021/09/13 10:23:20;;;;;;;8.60;5.38;;;;;;;26.71;63.47;96486.72;5023429;28;20088;-58
2021/09/13 10:25:50;;;;;;;6.38;5.00;;;;;;;27.49;58.04;96498.41;5027691;28;20105;-58
2021/09/13 10:28:18;;;;;;;4.93;4.22;;;;;;;27.28;56.67;96489.19;5046851;28;20077;-55
2021/09/13 10:30:51;;;;;;;7.72;4.47;;;;;;;27.23;56.77;96485.63;5024221;28;20061;-56
2021/09/13 10:33:58;;;;;;;5.63;5.03;;;;;;;27.82;59.52;96475.81;5024412;28;20072;-57
2021/09/13 10:37:00;;;;;;;8.43;5.10;;;;;;;27.68;60.92;96480.78;5042064;28;20071;-61
2021/09/13 10:40:04;;;;;;;6.43;5.25;;;;;;;28.35;57.47;96470.66;5043104;28;20075;-57
2021/09/13 10:42:39;;;;;;;5.70;5.10;;;;;;;27.51;57.83;96476.50;5019791;28;20057;-57
2021/09/13 10:45:24;;;;;;;7.25;4.80;;;;;;;26.93;62.01;96476.75;5020331;28;20076;-60
2021/09/13 10:48:03;;;;;;;5.68;5.13;;;;;;;27.28;62.17;96472.13;5035932;28;20520;-60
2021/09/13 10:50:36;;;;;;;6.93;4.72;;;;;;;27.01;63.09;96478.22;5033691;28;20513;-54
2021/09/13 10:53:27;;;;;;;5.07;4.57;;;;;;;27.06;59.20;96470.19;5023193;28;20070;-58
2021/09/13 10:55:59;;;;;;;5.93;4.10;;;;;;;27.66;60.50;96474.78;5023209;28;20064;-57
2021/09/13 10:58:42;;;;;;;6.40;5.00;;;;;;;26.90;67.33;96476.44;5024121;28;20081;-57
2021/09/13 11:01:22;;;;;;;5.95;4.43;;;;;;;28.00;60.58;96469.22;5027709;28;20085;-59
2021/09/13 11:03:55;;;;;;;6.75;4.97;;;;;;;27.09;64.24;96472.41;5021220;28;20210;-57
2021/09/13 11:06:48;;;;;;;6.30;4.82;;;;;;;27.18;61.34;96462.78;5018169;28;20072;-57
2021/09/13 11:09:25;;;;;;;8.32;4.80;;;;;;;27.39;61.34;96460.34;5021744;28;20073;-58
2021/09/13 11:11:58;;;;;;;5.43;4.93;;;;;;;28.53;55.85;96461.38;5037842;28;20151;-58
2021/09/13 11:14:31;;;;;;;6.35;5.63;;;;;;;27.89;59.77;96453.94;5036812;28;20057;-56
2021/09/13 11:17:02;;;;;;;8.43;6.57;;;;;;;28.05;61.13;96452.22;5025361;28;20064;-59
2021/09/13 11:19:31;;;;;;;9.93;7.50;;;;;;;27.37;65.60;96452.50;5018887;28;20169;-57
2021/09/13 11:22:01;;;;;;;11.67;9.60;;;;;;;27.29;64.42;96455.66;5025627;28;20081;-55
2021/09/13 11:24:33;;;;;;;12.43;8.60;;;;;;;27.87;62.32;96446.09;5041032;28;20949;-58
2021/09/13 11:27:03;;;;;;;12.55;8.55;;;;;;;28.69;58.08;96446.00;5027456;28;20080;-59
2021/09/13 11:29:34;;;;;;;9.10;5.75;;;;;;;28.35;57.65;96454.38;5025079;28;20065;-57
2021/09/13 11:32:04;;;;;;;6.22;5.38;;;;;;;28.23;58.93;96437.47;5024412;28;20083;-57
2021/09/13 11:34:38;;;;;;;7.13;5.63;;;;;;;28.53;54.14;96445.91;5022906;28;20100;-52